sensor_id;sensor_type;location;lat;lon;timestamp;temperature;humidity
11112;DHT22;5609;49.466;8.468;2022-08-01T00:01:45;24.30;1.00
11112;DHT22;5609;49.466;8.468;2022-08-01T00:04:12;24.30;1.00
11112;DHT22;5609;49.466;8.468;2022-08-01T00:06:40;24.30;1.00
11112;DHT22;5609;49.466;8.468;2022-08-01T00:09:07;24.30;76.20
11112;DHT22;5609;49.466;8.468;2022-08-01T00:11:34;24.20;99.90
11112;DHT22;5609;49.466;8.468;2022-08-01T00:14:00;24.30;26.00
11112;DHT22;5609;49.466;8.468;2022-08-01T00:16:27;24.20;99.90
11112;DHT22;5609;49.466;8.468;2022-08-01T00:18:54;24.20;99.90
11112;DHT22;5609;49.466;8.468;2022-08-01T00:21:21;24.20;99.90
11112;DHT22;5609;49.466;8.468;2022-08-01T00:23:49;24.10;99.90
11112;DHT22;5609;49.466;8.468;2022-08-01T00:26:16;23.90;1.00
11112;DHT22;5609;49.466;8.468;2022-08-01T00:28:43;23.90;1.00
11112;DHT22;5609;49.466;8.468;2022-08-01T00:31:10;23.90;1.00
11112;DHT22;5609;49.466;8.468;2022-08-01T00:33:37;23.80;1.00
11112;DHT22;5609;49.466;8.468;2022-08-01T00:36:03;23.80;1.00
11112;DHT22;5609;49.466;8.468;2022-08-01T00:38:30;23.70;1.00
11112;DHT22;5609;49.466;8.468;2022-08-01T00:40:58;23.70;1.00
11112;DHT22;5609;49.466;8.468;2022-08-01T00:43:25;23.70;1.00
11112;DHT22;5609;49.466;8.468;2022-08-01T00:45:52;23.70;1.00
11112;DHT22;5609;49.466;8.468;2022-08-01T00:48:19;23.70;1.00
11112;DHT22;5609;49.466;8.468;2022-08-01T00:50:46;23.80;93.10
11112;DHT22;5609;49.466;8.468;2022-08-01T00:53:13;23.70;99.90
11112;DHT22;5609;49.466;8.468;2022-08-01T00:55:40;23.60;1.00
11112;DHT22;5609;49.466;8.468;2022-08-01T00:58:08;23.60;1.00
11112;DHT22;5609;49.466;8.468;2022-08-01T01:00:35;23.60;99.90
11112;DHT22;5609;49.466;8.468;2022-08-01T01:03:02;23.60;99.90
11112;DHT22;5609;49.466;8.468;2022-08-01T01:05:34;23.70;1.00
11112;DHT22;5609;49.466;8.468;2022-08-01T01:08:05;23.50;1.00
11112;DHT22;5609;49.466;8.468;2022-08-01T01:10:39;23.50;1.00
11112;DHT22;5609;49.466;8.468;2022-08-01T01:13:11;23.40;99.90
11112;DHT22;5609;49.466;8.468;2022-08-01T01:15:43;23.30;99.90
11112;DHT22;5609;49.466;8.468;2022-08-01T01:18:14;23.30;1.00
11112;DHT22;5609;49.466;8.468;2022-08-01T01:20:44;23.40;1.00
11112;DHT22;5609;49.466;8.468;2022-08-01T01:23:24;23.40;99.90
11112;DHT22;5609;49.466;8.468;2022-08-01T01:26:17;23.30;1.00
11112;DHT22;5609;49.466;8.468;2022-08-01T01:29:00;23.20;1.00
11112;DHT22;5609;49.466;8.468;2022-08-01T01:31:30;23.10;66.10
11112;DHT22;5609;49.466;8.468;2022-08-01T01:33:58;23.10;99.90
11112;DHT22;5609;49.466;8.468;2022-08-01T01:36:27;23.00;1.00
11112;DHT22;5609;49.466;8.468;2022-08-01T01:38:55;23.00;99.90
11112;DHT22;5609;49.466;8.468;2022-08-01T01:41:23;23.00;1.00
11112;DHT22;5609;49.466;8.468;2022-08-01T01:43:50;23.00;1.00
11112;DHT22;5609;49.466;8.468;2022-08-01T01:46:24;23.00;1.00
11112;DHT22;5609;49.466;8.468;2022-08-01T01:48:54;23.00;20.70
11112;DHT22;5609;49.466;8.468;2022-08-01T01:51:22;22.80;99.90
11112;DHT22;5609;49.466;8.468;2022-08-01T01:53:53;22.80;99.90
11112;DHT22;5609;49.466;8.468;2022-08-01T01:56:21;22.70;99.90
11112;DHT22;5609;49.466;8.468;2022-08-01T01:58:50;22.70;99.90
11112;DHT22;5609;49.466;8.468;2022-08-01T02:01:19;22.60;1.00
11112;DHT22;5609;49.466;8.468;2022-08-01T02:03:48;22.70;99.90
11112;DHT22;5609;49.466;8.468;2022-08-01T02:06:16;22.70;1.00
11112;DHT22;5609;49.466;8.468;2022-08-01T02:08:44;22.70;1.00
11112;DHT22;5609;49.466;8.468;2022-08-01T02:11:12;22.60;1.00
11112;DHT22;5609;49.466;8.468;2022-08-01T02:13:47;22.60;1.00
11112;DHT22;5609;49.466;8.468;2022-08-01T02:16:15;22.60;1.00
11112;DHT22;5609;49.466;8.468;2022-08-01T02:18:45;22.50;1.00
11112;DHT22;5609;49.466;8.468;2022-08-01T02:21:14;22.60;1.00
11112;DHT22;5609;49.466;8.468;2022-08-01T02:23:43;22.50;1.00
11112;DHT22;5609;49.466;8.468;2022-08-01T02:26:14;22.60;1.00
11112;DHT22;5609;49.466;8.468;2022-08-01T02:28:47;22.60;99.90
11112;DHT22;5609;49.466;8.468;2022-08-01T02:31:17;22.70;99.90
11112;DHT22;5609;49.466;8.468;2022-08-01T02:33:53;22.60;99.90
11112;DHT22;5609;49.466;8.468;2022-08-01T02:36:21;22.50;1.00
11112;DHT22;5609;49.466;8.468;2022-08-01T02:38:50;22.50;1.00
11112;DHT22;5609;49.466;8.468;2022-08-01T02:41:21;22.50;1.00
11112;DHT22;5609;49.466;8.468;2022-08-01T02:43:50;22.50;1.00
11112;DHT22;5609;49.466;8.468;2022-08-01T02:46:22;22.50;1.00
11112;DHT22;5609;49.466;8.468;2022-08-01T02:48:53;22.50;1.00
11112;DHT22;5609;49.466;8.468;2022-08-01T02:51:23;22.50;1.00
11112;DHT22;5609;49.466;8.468;2022-08-01T02:53:52;22.50;1.00
11112;DHT22;5609;49.466;8.468;2022-08-01T02:56:21;22.40;1.00
11112;DHT22;5609;49.466;8.468;2022-08-01T02:58:49;22.40;1.00
11112;DHT22;5609;49.466;8.468;2022-08-01T03:01:17;22.40;1.00
11112;DHT22;5609;49.466;8.468;2022-08-01T03:03:45;22.40;1.00
11112;DHT22;5609;49.466;8.468;2022-08-01T03:06:14;22.40;1.00
11112;DHT22;5609;49.466;8.468;2022-08-01T03:08:42;22.40;1.00
11112;DHT22;5609;49.466;8.468;2022-08-01T03:11:11;22.30;1.00
11112;DHT22;5609;49.466;8.468;2022-08-01T03:13:40;22.20;1.00
11112;DHT22;5609;49.466;8.468;2022-08-01T03:16:09;22.20;1.00
11112;DHT22;5609;49.466;8.468;2022-08-01T03:18:37;22.20;1.00
11112;DHT22;5609;49.466;8.468;2022-08-01T03:21:06;22.20;1.00
11112;DHT22;5609;49.466;8.468;2022-08-01T03:23:36;22.30;1.00
11112;DHT22;5609;49.466;8.468;2022-08-01T03:26:05;22.20;1.00
11112;DHT22;5609;49.466;8.468;2022-08-01T03:28:32;22.20;1.00
11112;DHT22;5609;49.466;8.468;2022-08-01T03:31:00;22.30;1.00
11112;DHT22;5609;49.466;8.468;2022-08-01T03:33:28;22.20;1.00
11112;DHT22;5609;49.466;8.468;2022-08-01T03:35:55;22.10;1.00
11112;DHT22;5609;49.466;8.468;2022-08-01T03:38:25;22.10;1.00
11112;DHT22;5609;49.466;8.468;2022-08-01T03:40:58;22.10;1.00
11112;DHT22;5609;49.466;8.468;2022-08-01T03:43:30;22.10;1.00
11112;DHT22;5609;49.466;8.468;2022-08-01T03:46:04;22.00;1.00
11112;DHT22;5609;49.466;8.468;2022-08-01T03:48:36;22.00;1.00
11112;DHT22;5609;49.466;8.468;2022-08-01T03:51:05;21.90;1.00
11112;DHT22;5609;49.466;8.468;2022-08-01T03:53:34;22.00;1.00
11112;DHT22;5609;49.466;8.468;2022-08-01T03:56:03;22.00;1.00
11112;DHT22;5609;49.466;8.468;2022-08-01T03:58:34;22.00;1.00
11112;DHT22;5609;49.466;8.468;2022-08-01T04:01:03;22.00;1.00
11112;DHT22;5609;49.466;8.468;2022-08-01T04:03:30;22.10;1.00
11112;DHT22;5609;49.466;8.468;2022-08-01T04:05:57;22.10;1.00
11112;DHT22;5609;49.466;8.468;2022-08-01T04:08:34;22.10;1.00
11112;DHT22;5609;49.466;8.468;2022-08-01T04:11:02;22.10;1.00
11112;DHT22;5609;49.466;8.468;2022-08-01T04:13:30;22.10;1.00
11112;DHT22;5609;49.466;8.468;2022-08-01T04:15:57;22.10;1.00
11112;DHT22;5609;49.466;8.468;2022-08-01T04:18:23;22.10;1.00
11112;DHT22;5609;49.466;8.468;2022-08-01T04:20:50;22.10;1.00
11112;DHT22;5609;49.466;8.468;2022-08-01T04:23:20;22.20;1.00
11112;DHT22;5609;49.466;8.468;2022-08-01T04:25:48;22.20;1.00
11112;DHT22;5609;49.466;8.468;2022-08-01T04:28:18;22.30;1.00
11112;DHT22;5609;49.466;8.468;2022-08-01T04:30:47;22.20;1.00
11112;DHT22;5609;49.466;8.468;2022-08-01T04:33:17;22.20;1.00
11112;DHT22;5609;49.466;8.468;2022-08-01T04:35:46;22.30;1.00
11112;DHT22;5609;49.466;8.468;2022-08-01T04:38:17;22.20;1.00
11112;DHT22;5609;49.466;8.468;2022-08-01T04:40:45;22.20;1.00
11112;DHT22;5609;49.466;8.468;2022-08-01T04:43:12;22.30;1.00
11112;DHT22;5609;49.466;8.468;2022-08-01T04:45:41;22.30;1.00
11112;DHT22;5609;49.466;8.468;2022-08-01T04:48:09;22.40;1.00
11112;DHT22;5609;49.466;8.468;2022-08-01T04:50:37;22.50;1.00
11112;DHT22;5609;49.466;8.468;2022-08-01T04:53:05;22.50;1.00
11112;DHT22;5609;49.466;8.468;2022-08-01T04:55:32;22.50;1.00
11112;DHT22;5609;49.466;8.468;2022-08-01T04:57:58;22.50;1.00
11112;DHT22;5609;49.466;8.468;2022-08-01T05:00:25;22.50;1.00
11112;DHT22;5609;49.466;8.468;2022-08-01T05:02:55;22.50;1.00
11112;DHT22;5609;49.466;8.468;2022-08-01T05:05:22;22.50;1.00
11112;DHT22;5609;49.466;8.468;2022-08-01T05:07:51;22.60;1.00
11112;DHT22;5609;49.466;8.468;2022-08-01T05:10:18;22.60;1.00
11112;DHT22;5609;49.466;8.468;2022-08-01T05:12:45;22.60;1.00
11112;DHT22;5609;49.466;8.468;2022-08-01T05:15:12;22.70;1.00
11112;DHT22;5609;49.466;8.468;2022-08-01T05:17:39;22.60;1.00
11112;DHT22;5609;49.466;8.468;2022-08-01T05:20:10;22.60;1.00
11112;DHT22;5609;49.466;8.468;2022-08-01T05:22:37;22.70;1.00
11112;DHT22;5609;49.466;8.468;2022-08-01T05:25:05;22.70;1.00
11112;DHT22;5609;49.466;8.468;2022-08-01T05:27:31;22.80;1.00
11112;DHT22;5609;49.466;8.468;2022-08-01T05:30:04;22.80;1.00
11112;DHT22;5609;49.466;8.468;2022-08-01T05:32:31;22.80;1.00
11112;DHT22;5609;49.466;8.468;2022-08-01T05:34:58;22.70;1.00
11112;DHT22;5609;49.466;8.468;2022-08-01T05:37:26;22.70;1.00
11112;DHT22;5609;49.466;8.468;2022-08-01T05:39:53;22.70;1.00
11112;DHT22;5609;49.466;8.468;2022-08-01T05:42:19;22.70;1.00
11112;DHT22;5609;49.466;8.468;2022-08-01T05:44:46;22.80;1.00
11112;DHT22;5609;49.466;8.468;2022-08-01T05:47:15;22.70;1.00
11112;DHT22;5609;49.466;8.468;2022-08-01T05:49:41;22.70;1.00
11112;DHT22;5609;49.466;8.468;2022-08-01T05:52:09;22.60;1.00
11112;DHT22;5609;49.466;8.468;2022-08-01T05:54:37;22.60;1.00
11112;DHT22;5609;49.466;8.468;2022-08-01T05:57:04;22.60;1.00
11112;DHT22;5609;49.466;8.468;2022-08-01T05:59:31;22.60;1.00
11112;DHT22;5609;49.466;8.468;2022-08-01T06:01:58;22.60;1.00
11112;DHT22;5609;49.466;8.468;2022-08-01T06:04:25;22.70;1.00
11112;DHT22;5609;49.466;8.468;2022-08-01T06:06:51;22.80;1.00
11112;DHT22;5609;49.466;8.468;2022-08-01T06:09:18;22.80;1.00
11112;DHT22;5609;49.466;8.468;2022-08-01T06:11:46;23.00;1.00
11112;DHT22;5609;49.466;8.468;2022-08-01T06:14:13;23.10;1.00
11112;DHT22;5609;49.466;8.468;2022-08-01T06:16:40;23.20;1.00
11112;DHT22;5609;49.466;8.468;2022-08-01T06:19:07;23.30;1.00
11112;DHT22;5609;49.466;8.468;2022-08-01T06:21:34;23.30;1.00
11112;DHT22;5609;49.466;8.468;2022-08-01T06:24:00;23.30;99.90
11112;DHT22;5609;49.466;8.468;2022-08-01T06:26:27;23.50;99.90
11112;DHT22;5609;49.466;8.468;2022-08-01T06:28:55;23.60;99.90
11112;DHT22;5609;49.466;8.468;2022-08-01T06:31:22;23.70;99.90
11112;DHT22;5609;49.466;8.468;2022-08-01T06:33:49;23.70;99.90
11112;DHT22;5609;49.466;8.468;2022-08-01T06:36:16;23.80;46.60
11112;DHT22;5609;49.466;8.468;2022-08-01T06:38:42;23.90;1.00
11112;DHT22;5609;49.466;8.468;2022-08-01T06:41:09;24.00;1.00
11112;DHT22;5609;49.466;8.468;2022-08-01T06:43:36;24.30;1.00
11112;DHT22;5609;49.466;8.468;2022-08-01T06:46:04;24.50;99.90
11112;DHT22;5609;49.466;8.468;2022-08-01T06:48:31;24.70;99.90
11112;DHT22;5609;49.466;8.468;2022-08-01T06:50:58;24.80;1.00
11112;DHT22;5609;49.466;8.468;2022-08-01T06:53:39;24.80;1.00
11112;DHT22;5609;49.466;8.468;2022-08-01T06:56:07;24.80;1.00
11112;DHT22;5609;49.466;8.468;2022-08-01T06:58:35;24.80;1.00
11112;DHT22;5609;49.466;8.468;2022-08-01T07:01:04;24.70;1.00
11112;DHT22;5609;49.466;8.468;2022-08-01T07:03:32;24.60;99.90
11112;DHT22;5609;49.466;8.468;2022-08-01T07:05:59;24.60;1.00
11112;DHT22;5609;49.466;8.468;2022-08-01T07:08:26;24.70;99.90
11112;DHT22;5609;49.466;8.468;2022-08-01T07:10:53;24.70;99.90
11112;DHT22;5609;49.466;8.468;2022-08-01T07:13:21;24.70;99.90
11112;DHT22;5609;49.466;8.468;2022-08-01T07:15:50;24.60;47.40
11112;DHT22;5609;49.466;8.468;2022-08-01T07:18:19;24.60;99.90
11112;DHT22;5609;49.466;8.468;2022-08-01T07:20:46;24.70;1.00
11112;DHT22;5609;49.466;8.468;2022-08-01T07:23:12;24.70;99.90
11112;DHT22;5609;49.466;8.468;2022-08-01T07:25:39;24.80;99.90
11112;DHT22;5609;49.466;8.468;2022-08-01T07:28:06;24.90;1.00
11112;DHT22;5609;49.466;8.468;2022-08-01T07:30:33;24.90;1.00
11112;DHT22;5609;49.466;8.468;2022-08-01T07:33:00;25.00;1.00
11112;DHT22;5609;49.466;8.468;2022-08-01T07:35:29;25.10;1.00
11112;DHT22;5609;49.466;8.468;2022-08-01T07:37:55;25.20;1.00
11112;DHT22;5609;49.466;8.468;2022-08-01T07:40:22;25.40;99.90
11112;DHT22;5609;49.466;8.468;2022-08-01T07:42:49;25.60;1.00
11112;DHT22;5609;49.466;8.468;2022-08-01T07:45:16;25.90;1.00
11112;DHT22;5609;49.466;8.468;2022-08-01T07:47:43;25.80;99.90
11112;DHT22;5609;49.466;8.468;2022-08-01T07:50:10;25.90;99.90
11112;DHT22;5609;49.466;8.468;2022-08-01T07:52:39;25.70;1.00
11112;DHT22;5609;49.466;8.468;2022-08-01T07:55:07;25.90;1.00
11112;DHT22;5609;49.466;8.468;2022-08-01T07:57:35;25.90;99.90
11112;DHT22;5609;49.466;8.468;2022-08-01T08:00:03;25.80;99.90
11112;DHT22;5609;49.466;8.468;2022-08-01T08:02:31;26.00;99.90
11112;DHT22;5609;49.466;8.468;2022-08-01T08:04:57;26.30;1.00
11112;DHT22;5609;49.466;8.468;2022-08-01T08:07:24;26.60;1.00
11112;DHT22;5609;49.466;8.468;2022-08-01T08:09:52;26.70;99.90
11112;DHT22;5609;49.466;8.468;2022-08-01T08:12:19;26.90;99.90
11112;DHT22;5609;49.466;8.468;2022-08-01T08:14:46;27.10;75.70
11112;DHT22;5609;49.466;8.468;2022-08-01T08:17:13;27.50;1.00
11112;DHT22;5609;49.466;8.468;2022-08-01T08:19:39;27.70;1.00
11112;DHT22;5609;49.466;8.468;2022-08-01T08:22:07;28.00;99.90
11112;DHT22;5609;49.466;8.468;2022-08-01T08:24:34;28.30;99.90
11112;DHT22;5609;49.466;8.468;2022-08-01T08:27:02;28.20;99.90
11112;DHT22;5609;49.466;8.468;2022-08-01T08:29:30;28.00;99.90
11112;DHT22;5609;49.466;8.468;2022-08-01T08:31:59;28.10;99.90
11112;DHT22;5609;49.466;8.468;2022-08-01T08:34:27;28.10;99.90
11112;DHT22;5609;49.466;8.468;2022-08-01T08:36:54;28.00;99.90
11112;DHT22;5609;49.466;8.468;2022-08-01T08:39:22;27.50;99.90
11112;DHT22;5609;49.466;8.468;2022-08-01T08:41:49;27.40;99.90
11112;DHT22;5609;49.466;8.468;2022-08-01T08:44:17;27.40;99.90
11112;DHT22;5609;49.466;8.468;2022-08-01T08:46:47;27.60;99.90
11112;DHT22;5609;49.466;8.468;2022-08-01T08:49:17;27.60;99.90
11112;DHT22;5609;49.466;8.468;2022-08-01T08:51:47;27.60;99.90
11112;DHT22;5609;49.466;8.468;2022-08-01T08:54:14;27.50;99.90
11112;DHT22;5609;49.466;8.468;2022-08-01T08:56:42;27.60;99.90
11112;DHT22;5609;49.466;8.468;2022-08-01T08:59:11;27.70;99.90
11112;DHT22;5609;49.466;8.468;2022-08-01T09:01:41;27.70;99.90
11112;DHT22;5609;49.466;8.468;2022-08-01T09:04:08;27.60;99.90
11112;DHT22;5609;49.466;8.468;2022-08-01T09:06:35;27.40;99.90
11112;DHT22;5609;49.466;8.468;2022-08-01T09:09:03;27.30;99.90
11112;DHT22;5609;49.466;8.468;2022-08-01T09:11:31;27.30;99.90
11112;DHT22;5609;49.466;8.468;2022-08-01T09:14:03;27.30;99.90
11112;DHT22;5609;49.466;8.468;2022-08-01T09:16:31;27.60;99.90
11112;DHT22;5609;49.466;8.468;2022-08-01T09:19:10;27.80;99.90
11112;DHT22;5609;49.466;8.468;2022-08-01T09:21:38;28.00;99.90
11112;DHT22;5609;49.466;8.468;2022-08-01T09:24:14;28.30;59.60
11112;DHT22;5609;49.466;8.468;2022-08-01T09:26:42;28.80;1.00
11112;DHT22;5609;49.466;8.468;2022-08-01T09:29:18;28.70;1.00
11112;DHT22;5609;49.466;8.468;2022-08-01T09:31:46;28.80;1.00
11112;DHT22;5609;49.466;8.468;2022-08-01T09:34:16;29.00;1.00
11112;DHT22;5609;49.466;8.468;2022-08-01T09:36:51;29.10;1.00
11112;DHT22;5609;49.466;8.468;2022-08-01T09:39:21;28.90;1.00
11112;DHT22;5609;49.466;8.468;2022-08-01T09:41:48;28.90;1.00
11112;DHT22;5609;49.466;8.468;2022-08-01T09:44:17;29.20;1.00
11112;DHT22;5609;49.466;8.468;2022-08-01T09:46:52;29.30;1.00
11112;DHT22;5609;49.466;8.468;2022-08-01T09:49:39;29.60;1.00
11112;DHT22;5609;49.466;8.468;2022-08-01T10:07:07;29.90;1.00
11112;DHT22;5609;49.466;8.468;2022-08-01T10:09:35;30.40;99.90
11112;DHT22;5609;49.466;8.468;2022-08-01T10:12:03;29.80;99.90
11112;DHT22;5609;49.466;8.468;2022-08-01T10:16:59;29.70;99.90
11112;DHT22;5609;49.466;8.468;2022-08-01T10:19:28;29.50;99.90
11112;DHT22;5609;49.466;8.468;2022-08-01T10:21:56;29.40;99.90
11112;DHT22;5609;49.466;8.468;2022-08-01T10:24:27;29.30;99.90
11112;DHT22;5609;49.466;8.468;2022-08-01T10:26:57;29.30;1.00
11112;DHT22;5609;49.466;8.468;2022-08-01T10:29:31;28.80;1.00
11112;DHT22;5609;49.466;8.468;2022-08-01T10:31:59;28.80;1.00
11112;DHT22;5609;49.466;8.468;2022-08-01T10:34:27;29.00;1.00
11112;DHT22;5609;49.466;8.468;2022-08-01T10:36:57;28.90;1.00
11112;DHT22;5609;49.466;8.468;2022-08-01T10:39:25;28.80;1.00
11112;DHT22;5609;49.466;8.468;2022-08-01T10:41:54;28.90;1.00
11112;DHT22;5609;49.466;8.468;2022-08-01T10:44:23;29.00;1.00
11112;DHT22;5609;49.466;8.468;2022-08-01T10:46:54;29.00;1.00
11112;DHT22;5609;49.466;8.468;2022-08-01T10:49:27;29.30;1.00
11112;DHT22;5609;49.466;8.468;2022-08-01T10:51:55;29.50;1.00
11112;DHT22;5609;49.466;8.468;2022-08-01T10:54:26;29.70;99.90
11112;DHT22;5609;49.466;8.468;2022-08-01T10:56:53;29.80;99.90
11112;DHT22;5609;49.466;8.468;2022-08-01T10:59:23;30.10;99.90
11112;DHT22;5609;49.466;8.468;2022-08-01T11:01:57;30.10;99.90
11112;DHT22;5609;49.466;8.468;2022-08-01T11:04:44;30.20;99.90
11112;DHT22;5609;49.466;8.468;2022-08-01T11:07:16;30.40;99.90
11112;DHT22;5609;49.466;8.468;2022-08-01T11:09:46;30.50;99.90
11112;DHT22;5609;49.466;8.468;2022-08-01T12:10:24;31.10;99.90
11112;DHT22;5609;49.466;8.468;2022-08-01T12:12:54;32.80;99.90
11112;DHT22;5609;49.466;8.468;2022-08-01T12:15:24;33.10;99.90
11112;DHT22;5609;49.466;8.468;2022-08-01T12:17:57;33.20;99.90
11112;DHT22;5609;49.466;8.468;2022-08-01T12:20:26;33.10;99.90
11112;DHT22;5609;49.466;8.468;2022-08-01T12:22:53;33.10;99.90
11112;DHT22;5609;49.466;8.468;2022-08-01T12:25:21;32.60;99.90
11112;DHT22;5609;49.466;8.468;2022-08-01T12:27:48;32.50;99.90
11112;DHT22;5609;49.466;8.468;2022-08-01T12:30:17;32.60;99.90
11112;DHT22;5609;49.466;8.468;2022-08-01T13:40:01;33.20;99.90
11112;DHT22;5609;49.466;8.468;2022-08-01T13:42:28;35.50;99.90
11112;DHT22;5609;49.466;8.468;2022-08-01T13:59:41;35.90;83.70
11112;DHT22;5609;49.466;8.468;2022-08-01T14:04:35;35.20;68.80
11112;DHT22;5609;49.466;8.468;2022-08-01T14:07:02;34.50;83.20
11112;DHT22;5609;49.466;8.468;2022-08-01T14:09:29;33.90;73.50
11112;DHT22;5609;49.466;8.468;2022-08-01T14:11:57;33.70;91.20
11112;DHT22;5609;49.466;8.468;2022-08-01T14:14:24;33.20;93.20
11112;DHT22;5609;49.466;8.468;2022-08-01T14:16:51;33.10;96.00
11112;DHT22;5609;49.466;8.468;2022-08-01T14:19:17;33.30;96.80
11112;DHT22;5609;49.466;8.468;2022-08-01T14:21:44;33.50;97.50
11112;DHT22;5609;49.466;8.468;2022-08-01T14:24:11;33.50;96.40
11112;DHT22;5609;49.466;8.468;2022-08-01T14:26:38;34.20;95.60
11112;DHT22;5609;49.466;8.468;2022-08-01T14:29:06;34.40;92.70
11112;DHT22;5609;49.466;8.468;2022-08-01T14:31:33;34.40;93.30
11112;DHT22;5609;49.466;8.468;2022-08-01T14:34:00;33.90;93.80
11112;DHT22;5609;49.466;8.468;2022-08-01T14:36:27;33.40;96.40
11112;DHT22;5609;49.466;8.468;2022-08-01T14:38:54;33.10;98.20
11112;DHT22;5609;49.466;8.468;2022-08-01T14:41:21;32.80;95.50
11112;DHT22;5609;49.466;8.468;2022-08-01T14:43:47;32.80;99.90
11112;DHT22;5609;49.466;8.468;2022-08-01T14:46:15;33.00;99.90
11112;DHT22;5609;49.466;8.468;2022-08-01T14:48:42;32.90;99.90
11112;DHT22;5609;49.466;8.468;2022-08-01T14:51:09;32.90;99.90
11112;DHT22;5609;49.466;8.468;2022-08-01T14:53:36;32.70;99.90
11112;DHT22;5609;49.466;8.468;2022-08-01T14:56:03;32.80;99.90
11112;DHT22;5609;49.466;8.468;2022-08-01T14:58:30;32.60;99.90
11112;DHT22;5609;49.466;8.468;2022-08-01T15:00:57;32.70;99.90
11112;DHT22;5609;49.466;8.468;2022-08-01T15:03:25;32.80;99.90
11112;DHT22;5609;49.466;8.468;2022-08-01T15:05:52;32.80;99.90
11112;DHT22;5609;49.466;8.468;2022-08-01T15:08:19;32.70;99.90
11112;DHT22;5609;49.466;8.468;2022-08-01T15:10:46;32.80;99.90
11112;DHT22;5609;49.466;8.468;2022-08-01T15:13:12;32.70;99.90
11112;DHT22;5609;49.466;8.468;2022-08-01T15:15:39;32.70;99.90
11112;DHT22;5609;49.466;8.468;2022-08-01T15:18:06;32.60;99.90
11112;DHT22;5609;49.466;8.468;2022-08-01T15:20:34;32.60;99.90
11112;DHT22;5609;49.466;8.468;2022-08-01T15:23:01;32.70;99.90
11112;DHT22;5609;49.466;8.468;2022-08-01T15:25:28;32.60;99.90
11112;DHT22;5609;49.466;8.468;2022-08-01T15:27:55;32.80;99.90
11112;DHT22;5609;49.466;8.468;2022-08-01T15:30:22;32.60;98.70
11112;DHT22;5609;49.466;8.468;2022-08-01T15:32:49;32.60;99.80
11112;DHT22;5609;49.466;8.468;2022-08-01T15:35:16;32.30;98.40
11112;DHT22;5609;49.466;8.468;2022-08-01T15:37:44;32.30;99.90
11112;DHT22;5609;49.466;8.468;2022-08-01T15:40:11;32.10;99.90
11112;DHT22;5609;49.466;8.468;2022-08-01T15:42:38;31.70;99.90
11112;DHT22;5609;49.466;8.468;2022-08-01T15:45:06;31.50;99.90
11112;DHT22;5609;49.466;8.468;2022-08-01T15:47:33;31.30;99.90
11112;DHT22;5609;49.466;8.468;2022-08-01T15:50:00;31.20;99.90
11112;DHT22;5609;49.466;8.468;2022-08-01T15:52:27;31.10;99.90
11112;DHT22;5609;49.466;8.468;2022-08-01T15:54:55;31.00;99.90
11112;DHT22;5609;49.466;8.468;2022-08-01T15:57:22;30.90;99.90
11112;DHT22;5609;49.466;8.468;2022-08-01T15:59:49;30.80;99.90
11112;DHT22;5609;49.466;8.468;2022-08-01T16:02:16;30.60;99.90
11112;DHT22;5609;49.466;8.468;2022-08-01T16:04:43;30.70;99.90
11112;DHT22;5609;49.466;8.468;2022-08-01T16:07:09;30.70;99.90
11112;DHT22;5609;49.466;8.468;2022-08-01T16:09:37;30.70;99.90
11112;DHT22;5609;49.466;8.468;2022-08-01T16:12:06;30.50;99.90
11112;DHT22;5609;49.466;8.468;2022-08-01T16:14:34;30.00;99.90
11112;DHT22;5609;49.466;8.468;2022-08-01T16:17:01;30.00;99.90
11112;DHT22;5609;49.466;8.468;2022-08-01T16:19:28;29.70;99.90
11112;DHT22;5609;49.466;8.468;2022-08-01T16:21:54;29.60;99.90
11112;DHT22;5609;49.466;8.468;2022-08-01T16:24:21;29.40;99.90
11112;DHT22;5609;49.466;8.468;2022-08-01T16:26:48;29.30;99.90
11112;DHT22;5609;49.466;8.468;2022-08-01T16:29:16;29.30;99.90
11112;DHT22;5609;49.466;8.468;2022-08-01T16:31:43;29.20;99.90
11112;DHT22;5609;49.466;8.468;2022-08-01T16:34:10;29.00;99.90
11112;DHT22;5609;49.466;8.468;2022-08-01T16:36:36;29.00;99.90
11112;DHT22;5609;49.466;8.468;2022-08-01T16:39:03;28.90;99.90
11112;DHT22;5609;49.466;8.468;2022-08-01T16:41:32;28.90;99.90
11112;DHT22;5609;49.466;8.468;2022-08-01T16:43:59;28.80;99.90
11112;DHT22;5609;49.466;8.468;2022-08-01T16:46:27;28.80;99.90
11112;DHT22;5609;49.466;8.468;2022-08-01T16:48:54;28.80;99.90
11112;DHT22;5609;49.466;8.468;2022-08-01T16:51:21;28.80;99.90
11112;DHT22;5609;49.466;8.468;2022-08-01T16:53:47;28.80;99.90
11112;DHT22;5609;49.466;8.468;2022-08-01T16:56:14;28.70;99.90
11112;DHT22;5609;49.466;8.468;2022-08-01T16:58:41;28.70;99.90
11112;DHT22;5609;49.466;8.468;2022-08-01T17:01:08;28.60;99.90
11112;DHT22;5609;49.466;8.468;2022-08-01T17:03:36;28.50;99.90
11112;DHT22;5609;49.466;8.468;2022-08-01T17:06:03;28.50;99.90
11112;DHT22;5609;49.466;8.468;2022-08-01T17:08:30;28.50;99.90
11112;DHT22;5609;49.466;8.468;2022-08-01T17:10:57;28.50;99.90
11112;DHT22;5609;49.466;8.468;2022-08-01T17:13:24;28.40;99.90
11112;DHT22;5609;49.466;8.468;2022-08-01T17:15:51;28.50;99.90
11112;DHT22;5609;49.466;8.468;2022-08-01T17:18:18;28.50;99.90
11112;DHT22;5609;49.466;8.468;2022-08-01T17:20:46;28.50;99.90
11112;DHT22;5609;49.466;8.468;2022-08-01T17:23:14;28.40;99.90
11112;DHT22;5609;49.466;8.468;2022-08-01T17:25:41;28.30;99.90
11112;DHT22;5609;49.466;8.468;2022-08-01T17:28:08;28.30;99.90
11112;DHT22;5609;49.466;8.468;2022-08-01T17:30:35;28.20;99.90
11112;DHT22;5609;49.466;8.468;2022-08-01T17:33:04;28.10;99.90
11112;DHT22;5609;49.466;8.468;2022-08-01T17:35:31;28.10;99.90
11112;DHT22;5609;49.466;8.468;2022-08-01T17:37:59;28.10;99.90
11112;DHT22;5609;49.466;8.468;2022-08-01T17:40:26;28.00;99.90
11112;DHT22;5609;49.466;8.468;2022-08-01T17:42:53;28.00;99.90
11112;DHT22;5609;49.466;8.468;2022-08-01T17:45:19;28.00;99.90
11112;DHT22;5609;49.466;8.468;2022-08-01T17:47:46;28.00;99.90
11112;DHT22;5609;49.466;8.468;2022-08-01T17:50:14;28.00;99.90
11112;DHT22;5609;49.466;8.468;2022-08-01T17:52:41;28.00;99.90
11112;DHT22;5609;49.466;8.468;2022-08-01T17:55:10;28.00;99.90
11112;DHT22;5609;49.466;8.468;2022-08-01T17:57:37;27.90;99.90
11112;DHT22;5609;49.466;8.468;2022-08-01T18:00:05;27.90;1.00
11112;DHT22;5609;49.466;8.468;2022-08-01T18:02:33;28.10;1.00
11112;DHT22;5609;49.466;8.468;2022-08-01T18:04:59;28.20;1.00
11112;DHT22;5609;49.466;8.468;2022-08-01T18:07:26;28.30;1.00
11112;DHT22;5609;49.466;8.468;2022-08-01T18:09:53;28.00;1.00
11112;DHT22;5609;49.466;8.468;2022-08-01T18:12:21;27.90;1.00
11112;DHT22;5609;49.466;8.468;2022-08-01T18:14:48;27.60;1.00
11112;DHT22;5609;49.466;8.468;2022-08-01T18:17:15;27.50;1.00
11112;DHT22;5609;49.466;8.468;2022-08-01T18:19:42;27.50;1.00
11112;DHT22;5609;49.466;8.468;2022-08-01T18:22:09;27.40;1.00
11112;DHT22;5609;49.466;8.468;2022-08-01T18:24:37;27.40;1.00
11112;DHT22;5609;49.466;8.468;2022-08-01T18:27:04;27.30;1.00
11112;DHT22;5609;49.466;8.468;2022-08-01T18:29:32;27.30;1.00
11112;DHT22;5609;49.466;8.468;2022-08-01T18:31:59;27.30;1.00
11112;DHT22;5609;49.466;8.468;2022-08-01T18:34:27;27.30;1.00
11112;DHT22;5609;49.466;8.468;2022-08-01T18:36:55;27.30;1.00
11112;DHT22;5609;49.466;8.468;2022-08-01T18:39:22;27.20;1.00
11112;DHT22;5609;49.466;8.468;2022-08-01T18:41:49;27.10;1.00